sensor_id;sensor_type;location;lat;lon;timestamp;temperature;humidity
32895;DHT22;19251;49.484;8.260;2023-03-23T00:03:24;17.80;11.20
32895;DHT22;19251;49.484;8.260;2023-03-23T00:08:27;17.80;11.30
32895;DHT22;19251;49.484;8.260;2023-03-23T00:13:28;18.00;11.80
32895;DHT22;19251;49.484;8.260;2023-03-23T00:18:29;17.70;11.70
32895;DHT22;19251;49.484;8.260;2023-03-23T00:28:32;17.70;12.00
32895;DHT22;19251;49.484;8.260;2023-03-23T00:33:34;17.70;12.10
32895;DHT22;19251;49.484;8.260;2023-03-23T00:38:39;17.60;12.10
32895;DHT22;19251;49.484;8.260;2023-03-23T00:43:41;17.60;12.10
32895;DHT22;19251;49.484;8.260;2023-03-23T00:53:46;17.60;12.40
32895;DHT22;19251;49.484;8.260;2023-03-23T00:58:47;17.60;12.50
32895;DHT22;19251;49.484;8.260;2023-03-23T01:03:48;17.50;12.50
32895;DHT22;19251;49.484;8.260;2023-03-23T01:08:50;17.50;12.60
32895;DHT22;19251;49.484;8.260;2023-03-23T01:13:51;17.50;12.70
32895;DHT22;19251;49.484;8.260;2023-03-23T01:18:54;17.50;12.70
32895;DHT22;19251;49.484;8.260;2023-03-23T01:23:55;17.50;12.70
32895;DHT22;19251;49.484;8.260;2023-03-23T01:28:57;17.50;12.70
32895;DHT22;19251;49.484;8.260;2023-03-23T01:39:00;17.50;12.90
32895;DHT22;19251;49.484;8.260;2023-03-23T01:44:08;17.50;13.10
32895;DHT22;19251;49.484;8.260;2023-03-23T01:49:29;17.50;13.10
32895;DHT22;19251;49.484;8.260;2023-03-23T01:54:32;17.40;13.20
32895;DHT22;19251;49.484;8.260;2023-03-23T01:59:37;17.40;13.20
32895;DHT22;19251;49.484;8.260;2023-03-23T02:04:47;17.40;13.30
32895;DHT22;19251;49.484;8.260;2023-03-23T02:09:50;17.40;13.50
32895;DHT22;19251;49.484;8.260;2023-03-23T02:14:51;17.40;13.50
32895;DHT22;19251;49.484;8.260;2023-03-23T02:35:18;17.30;13.80
32895;DHT22;19251;49.484;8.260;2023-03-23T02:40:21;17.30;13.90
32895;DHT22;19251;49.484;8.260;2023-03-23T02:45:24;17.30;13.90
32895;DHT22;19251;49.484;8.260;2023-03-23T02:50:27;17.30;13.90
32895;DHT22;19251;49.484;8.260;2023-03-23T02:55:28;17.20;13.90
32895;DHT22;19251;49.484;8.260;2023-03-23T03:00:31;17.30;14.00
32895;DHT22;19251;49.484;8.260;2023-03-23T03:10:42;17.20;14.00
32895;DHT22;19251;49.484;8.260;2023-03-23T03:15:57;17.20;14.10
32895;DHT22;19251;49.484;8.260;2023-03-23T03:21:04;17.20;14.10
32895;DHT22;19251;49.484;8.260;2023-03-23T03:26:09;17.30;14.30
32895;DHT22;19251;49.484;8.260;2023-03-23T03:31:13;17.20;14.20
32895;DHT22;19251;49.484;8.260;2023-03-23T03:36:21;17.30;14.30
32895;DHT22;19251;49.484;8.260;2023-03-23T03:41:24;17.30;14.50
32895;DHT22;19251;49.484;8.260;2023-03-23T03:46:25;17.20;14.50
32895;DHT22;19251;49.484;8.260;2023-03-23T03:51:31;17.20;14.60
32895;DHT22;19251;49.484;8.260;2023-03-23T03:56:32;17.30;14.70
32895;DHT22;19251;49.484;8.260;2023-03-23T04:01:37;17.30;14.70
32895;DHT22;19251;49.484;8.260;2023-03-23T04:11:40;17.30;14.90
32895;DHT22;19251;49.484;8.260;2023-03-23T04:16:45;17.30;15.20
32895;DHT22;19251;49.484;8.260;2023-03-23T04:26:49;17.20;15.50
32895;DHT22;19251;49.484;8.260;2023-03-23T04:36:57;17.20;15.80
32895;DHT22;19251;49.484;8.260;2023-03-23T04:41:59;17.20;16.10
32895;DHT22;19251;49.484;8.260;2023-03-23T04:52:05;17.10;16.20
32895;DHT22;19251;49.484;8.260;2023-03-23T04:57:09;17.10;16.30
32895;DHT22;19251;49.484;8.260;2023-03-23T05:07:14;17.10;16.50
32895;DHT22;19251;49.484;8.260;2023-03-23T05:22:20;17.10;16.80
32895;DHT22;19251;49.484;8.260;2023-03-23T05:27:22;17.00;16.90
32895;DHT22;19251;49.484;8.260;2023-03-23T05:32:25;17.00;16.90
32895;DHT22;19251;49.484;8.260;2023-03-23T05:37:31;17.00;17.30
32895;DHT22;19251;49.484;8.260;2023-03-23T05:42:34;17.00;17.70
32895;DHT22;19251;49.484;8.260;2023-03-23T05:47:38;17.00;17.90
32895;DHT22;19251;49.484;8.260;2023-03-23T05:52:41;17.00;18.20
32895;DHT22;19251;49.484;8.260;2023-03-23T05:57:43;17.00;18.30
32895;DHT22;19251;49.484;8.260;2023-03-23T06:02:46;17.00;18.60
32895;DHT22;19251;49.484;8.260;2023-03-23T06:07:48;17.10;18.50
32895;DHT22;19251;49.484;8.260;2023-03-23T06:12:49;17.10;18.60
32895;DHT22;19251;49.484;8.260;2023-03-23T06:27:59;17.20;18.70
32895;DHT22;19251;49.484;8.260;2023-03-23T06:33:01;17.20;18.70
32895;DHT22;19251;49.484;8.260;2023-03-23T06:38:09;17.20;18.70
32895;DHT22;19251;49.484;8.260;2023-03-23T06:48:12;17.20;18.70
32895;DHT22;19251;49.484;8.260;2023-03-23T06:53:15;17.20;18.70
32895;DHT22;19251;49.484;8.260;2023-03-23T06:58:18;17.20;18.70
32895;DHT22;19251;49.484;8.260;2023-03-23T07:03:19;17.20;18.70
32895;DHT22;19251;49.484;8.260;2023-03-23T07:08:21;17.20;18.80
32895;DHT22;19251;49.484;8.260;2023-03-23T07:13:23;17.20;19.30
32895;DHT22;19251;49.484;8.260;2023-03-23T07:18:25;17.20;19.40
32895;DHT22;19251;49.484;8.260;2023-03-23T07:23:28;17.20;19.50
32895;DHT22;19251;49.484;8.260;2023-03-23T07:28:30;17.20;19.60
32895;DHT22;19251;49.484;8.260;2023-03-23T07:33:35;17.20;19.90
32895;DHT22;19251;49.484;8.260;2023-03-23T07:38:37;17.10;20.10
32895;DHT22;19251;49.484;8.260;2023-03-23T07:43:38;17.10;20.30
32895;DHT22;19251;49.484;8.260;2023-03-23T07:48:45;17.10;20.60
32895;DHT22;19251;49.484;8.260;2023-03-23T07:53:47;17.10;20.70
32895;DHT22;19251;49.484;8.260;2023-03-23T07:58:50;17.10;20.80
32895;DHT22;19251;49.484;8.260;2023-03-23T08:03:54;16.90;20.70
32895;DHT22;19251;49.484;8.260;2023-03-23T08:09:00;17.10;20.90
32895;DHT22;19251;49.484;8.260;2023-03-23T08:14:08;17.20;21.00
32895;DHT22;19251;49.484;8.260;2023-03-23T08:19:10;17.20;21.00
32895;DHT22;19251;49.484;8.260;2023-03-23T08:24:11;17.20;20.90
32895;DHT22;19251;49.484;8.260;2023-03-23T08:29:12;17.20;20.90
32895;DHT22;19251;49.484;8.260;2023-03-23T08:34:14;17.30;21.00
32895;DHT22;19251;49.484;8.260;2023-03-23T08:39:17;17.30;21.00
32895;DHT22;19251;49.484;8.260;2023-03-23T08:44:19;17.30;21.00
32895;DHT22;19251;49.484;8.260;2023-03-23T08:49:22;17.40;21.00
32895;DHT22;19251;49.484;8.260;2023-03-23T08:54:24;17.40;20.90
32895;DHT22;19251;49.484;8.260;2023-03-23T08:59:26;17.50;20.80
32895;DHT22;19251;49.484;8.260;2023-03-23T09:04:28;17.60;20.70
32895;DHT22;19251;49.484;8.260;2023-03-23T09:09:29;17.70;20.70
32895;DHT22;19251;49.484;8.260;2023-03-23T09:14:30;17.80;20.60
32895;DHT22;19251;49.484;8.260;2023-03-23T09:19:32;17.80;20.40
32895;DHT22;19251;49.484;8.260;2023-03-23T09:24:34;17.80;20.10
32895;DHT22;19251;49.484;8.260;2023-03-23T09:29:35;17.80;20.00
32895;DHT22;19251;49.484;8.260;2023-03-23T09:39:40;17.60;20.50
32895;DHT22;19251;49.484;8.260;2023-03-23T09:49:43;17.50;21.20
32895;DHT22;19251;49.484;8.260;2023-03-23T09:54:48;17.50;21.40
32895;DHT22;19251;49.484;8.260;2023-03-23T09:59:54;17.50;21.60
32895;DHT22;19251;49.484;8.260;2023-03-23T10:05:00;17.60;21.80
32895;DHT22;19251;49.484;8.260;2023-03-23T10:10:08;17.60;21.90
32895;DHT22;19251;49.484;8.260;2023-03-23T10:20:26;17.90;22.10
32895;DHT22;19251;49.484;8.260;2023-03-23T10:25:30;18.10;22.00
32895;DHT22;19251;49.484;8.260;2023-03-23T10:30:37;18.20;22.00
32895;DHT22;19251;49.484;8.260;2023-03-23T10:51:28;18.40;21.10
32895;DHT22;19251;49.484;8.260;2023-03-23T10:56:35;18.40;21.30
32895;DHT22;19251;49.484;8.260;2023-03-23T11:01:37;18.40;21.40
32895;DHT22;19251;49.484;8.260;2023-03-23T11:06:42;18.30;21.60
32895;DHT22;19251;49.484;8.260;2023-03-23T11:11:49;18.30;21.70
32895;DHT22;19251;49.484;8.260;2023-03-23T11:21:53;18.20;21.90
32895;DHT22;19251;49.484;8.260;2023-03-23T11:26:56;18.30;22.20
32895;DHT22;19251;49.484;8.260;2023-03-23T11:32:02;18.50;22.10
32895;DHT22;19251;49.484;8.260;2023-03-23T11:37:13;18.60;21.80
32895;DHT22;19251;49.484;8.260;2023-03-23T11:42:20;18.70;21.30
32895;DHT22;19251;49.484;8.260;2023-03-23T11:47:27;18.80;21.20
32895;DHT22;19251;49.484;8.260;2023-03-23T11:57:52;18.90;20.80
32895;DHT22;19251;49.484;8.260;2023-03-23T12:08:17;19.10;20.40
32895;DHT22;19251;49.484;8.260;2023-03-23T12:24:04;19.20;20.20
32895;DHT22;19251;49.484;8.260;2023-03-23T12:34:13;19.20;20.00
32895;DHT22;19251;49.484;8.260;2023-03-23T12:44:29;19.20;19.60
32895;DHT22;19251;49.484;8.260;2023-03-23T12:49:34;19.10;19.70
32895;DHT22;19251;49.484;8.260;2023-03-23T12:54:39;19.20;19.90
32895;DHT22;19251;49.484;8.260;2023-03-23T13:04:44;19.30;19.60
32895;DHT22;19251;49.484;8.260;2023-03-23T13:24:59;19.10;18.90
32895;DHT22;19251;49.484;8.260;2023-03-23T13:30:01;18.90;18.80
32895;DHT22;19251;49.484;8.260;2023-03-23T13:35:11;18.90;19.10
32895;DHT22;19251;49.484;8.260;2023-03-23T14:10:42;18.50;19.70
32895;DHT22;19251;49.484;8.260;2023-03-23T14:15:44;18.50;19.70
32895;DHT22;19251;49.484;8.260;2023-03-23T14:20:46;18.60;19.80
32895;DHT22;19251;49.484;8.260;2023-03-23T14:25:54;18.70;19.90
32895;DHT22;19251;49.484;8.260;2023-03-23T14:30:55;18.70;19.80
32895;DHT22;19251;49.484;8.260;2023-03-23T14:35:58;18.80;19.80
32895;DHT22;19251;49.484;8.260;2023-03-23T14:41:01;18.80;19.60
32895;DHT22;19251;49.484;8.260;2023-03-23T14:46:05;18.80;19.50
32895;DHT22;19251;49.484;8.260;2023-03-23T14:51:07;18.80;19.90
32895;DHT22;19251;49.484;8.260;2023-03-23T14:56:18;18.70;20.00
32895;DHT22;19251;49.484;8.260;2023-03-23T15:01:26;18.40;19.60
32895;DHT22;19251;49.484;8.260;2023-03-23T15:06:29;18.80;20.00
32895;DHT22;19251;49.484;8.260;2023-03-23T15:11:35;18.70;19.90
32895;DHT22;19251;49.484;8.260;2023-03-23T15:16:37;18.70;19.90
32895;DHT22;19251;49.484;8.260;2023-03-23T15:21:56;18.60;20.00
32895;DHT22;19251;49.484;8.260;2023-03-23T15:32:19;18.70;20.60
32895;DHT22;19251;49.484;8.260;2023-03-23T15:37:23;18.70;20.50
32895;DHT22;19251;49.484;8.260;2023-03-23T15:42:30;18.70;20.60
32895;DHT22;19251;49.484;8.260;2023-03-23T15:47:43;18.80;20.80
32895;DHT22;19251;49.484;8.260;2023-03-23T15:52:45;18.70;20.90
32895;DHT22;19251;49.484;8.260;2023-03-23T15:57:46;18.70;21.00
32895;DHT22;19251;49.484;8.260;2023-03-23T16:02:51;18.70;21.00
32895;DHT22;19251;49.484;8.260;2023-03-23T16:07:54;18.70;21.00
32895;DHT22;19251;49.484;8.260;2023-03-23T16:12:56;18.70;21.20
32895;DHT22;19251;49.484;8.260;2023-03-23T16:17:59;18.70;21.40
32895;DHT22;19251;49.484;8.260;2023-03-23T16:23:01;18.70;21.40
32895;DHT22;19251;49.484;8.260;2023-03-23T16:28:03;18.70;21.40
32895;DHT22;19251;49.484;8.260;2023-03-23T16:33:05;18.60;21.50
32895;DHT22;19251;49.484;8.260;2023-03-23T16:38:10;18.50;21.50
32895;DHT22;19251;49.484;8.260;2023-03-23T16:43:13;18.50;21.60
32895;DHT22;19251;49.484;8.260;2023-03-23T16:48:15;18.50;21.70
32895;DHT22;19251;49.484;8.260;2023-03-23T16:53:18;18.40;21.80
32895;DHT22;19251;49.484;8.260;2023-03-23T16:58:20;18.40;21.80
32895;DHT22;19251;49.484;8.260;2023-03-23T17:03:22;18.10;21.70
32895;DHT22;19251;49.484;8.260;2023-03-23T17:08:24;18.40;21.90
32895;DHT22;19251;49.484;8.260;2023-03-23T17:13:26;18.40;21.90
32895;DHT22;19251;49.484;8.260;2023-03-23T17:18:28;18.40;21.90
32895;DHT22;19251;49.484;8.260;2023-03-23T17:23:30;18.40;21.90
32895;DHT22;19251;49.484;8.260;2023-03-23T17:28:32;18.40;21.90
32895;DHT22;19251;49.484;8.260;2023-03-23T17:33:34;18.30;21.80
32895;DHT22;19251;49.484;8.260;2023-03-23T17:38:36;18.30;21.80
32895;DHT22;19251;49.484;8.260;2023-03-23T17:43:39;18.20;21.80
32895;DHT22;19251;49.484;8.260;2023-03-23T17:48:41;18.20;21.80
32895;DHT22;19251;49.484;8.260;2023-03-23T17:53:43;18.20;21.80
32895;DHT22;19251;49.484;8.260;2023-03-23T17:58:46;18.20;21.90
32895;DHT22;19251;49.484;8.260;2023-03-23T18:08:50;18.20;22.10
32895;DHT22;19251;49.484;8.260;2023-03-23T18:13:52;18.10;22.00
32895;DHT22;19251;49.484;8.260;2023-03-23T18:18:54;18.00;22.10
32895;DHT22;19251;49.484;8.260;2023-03-23T18:23:57;18.00;22.10
32895;DHT22;19251;49.484;8.260;2023-03-23T18:34:03;18.00;22.10
32895;DHT22;19251;49.484;8.260;2023-03-23T18:39:06;18.00;22.10
32895;DHT22;19251;49.484;8.260;2023-03-23T18:44:11;17.90;22.10
32895;DHT22;19251;49.484;8.260;2023-03-23T18:49:13;17.50;21.80
32895;DHT22;19251;49.484;8.260;2023-03-23T18:54:15;17.90;22.20
32895;DHT22;19251;49.484;8.260;2023-03-23T18:59:18;17.70;22.10
32895;DHT22;19251;49.484;8.260;2023-03-23T19:04:20;17.70;22.10
32895;DHT22;19251;49.484;8.260;2023-03-23T19:09:23;17.70;22.20
32895;DHT22;19251;49.484;8.260;2023-03-23T19:14:25;17.70;22.30
32895;DHT22;19251;49.484;8.260;2023-03-23T19:19:27;17.60;22.40
32895;DHT22;19251;49.484;8.260;2023-03-23T19:24:29;17.60;22.50
32895;DHT22;19251;49.484;8.260;2023-03-23T19:29:31;17.50;22.30
32895;DHT22;19251;49.484;8.260;2023-03-23T19:34:33;17.50;22.40
32895;DHT22;19251;49.484;8.260;2023-03-23T19:39:36;17.40;22.40
32895;DHT22;19251;49.484;8.260;2023-03-23T19:44:38;17.30;22.40
32895;DHT22;19251;49.484;8.260;2023-03-23T19:49:40;17.30;22.40
32895;DHT22;19251;49.484;8.260;2023-03-23T19:54:42;17.10;22.30
32895;DHT22;19251;49.484;8.260;2023-03-23T19:59:45;17.10;22.50
32895;DHT22;19251;49.484;8.260;2023-03-23T20:04:47;17.00;22.60
32895;DHT22;19251;49.484;8.260;2023-03-23T20:09:50;16.90;22.50
32895;DHT22;19251;49.484;8.260;2023-03-23T20:14:52;16.90;22.70
32895;DHT22;19251;49.484;8.260;2023-03-23T20:19:54;16.80;22.70
32895;DHT22;19251;49.484;8.260;2023-03-23T20:24:57;16.80;22.80
32895;DHT22;19251;49.484;8.260;2023-03-23T20:30:02;16.80;22.90
32895;DHT22;19251;49.484;8.260;2023-03-23T20:40:10;16.80;23.00
32895;DHT22;19251;49.484;8.260;2023-03-23T20:45:14;16.70;23.00
32895;DHT22;19251;49.484;8.260;2023-03-23T20:50:16;16.90;23.30
32895;DHT22;19251;49.484;8.260;2023-03-23T20:55:19;16.70;23.10
32895;DHT22;19251;49.484;8.260;2023-03-23T21:00:21;16.80;23.20
32895;DHT22;19251;49.484;8.260;2023-03-23T21:05:24;16.80;23.20
32895;DHT22;19251;49.484;8.260;2023-03-23T21:10:26;16.80;23.30
32895;DHT22;19251;49.484;8.260;2023-03-23T21:15:29;16.80;23.30
32895;DHT22;19251;49.484;8.260;2023-03-23T21:20:32;16.80;23.40
32895;DHT22;19251;49.484;8.260;2023-03-23T21:30:37;16.80;23.60
32895;DHT22;19251;49.484;8.260;2023-03-23T21:35:47;16.70;23.60
32895;DHT22;19251;49.484;8.260;2023-03-23T21:40:49;16.70;23.60
32895;DHT22;19251;49.484;8.260;2023-03-23T21:51:02;16.70;23.70
32895;DHT22;19251;49.484;8.260;2023-03-23T21:56:05;16.70;23.90
32895;DHT22;19251;49.484;8.260;2023-03-23T22:01:08;16.70;23.90
32895;DHT22;19251;49.484;8.260;2023-03-23T22:06:12;16.70;24.00
32895;DHT22;19251;49.484;8.260;2023-03-23T22:11:17;16.70;24.00
32895;DHT22;19251;49.484;8.260;2023-03-23T22:16:20;16.70;24.30
32895;DHT22;19251;49.484;8.260;2023-03-23T22:21:24;16.70;24.40
32895;DHT22;19251;49.484;8.260;2023-03-23T22:26:29;16.60;24.40
32895;DHT22;19251;49.484;8.260;2023-03-23T22:31:32;16.60;24.60
32895;DHT22;19251;49.484;8.260;2023-03-23T22:41:38;16.60;24.80
32895;DHT22;19251;49.484;8.260;2023-03-23T22:51:44;16.70;25.10
32895;DHT22;19251;49.484;8.260;2023-03-23T22:56:46;16.60;24.90
32895;DHT22;19251;49.484;8.260;2023-03-23T23:01:48;16.60;25.00
32895;DHT22;19251;49.484;8.260;2023-03-23T23:06:50;16.60;25.20
32895;DHT22;19251;49.484;8.260;2023-03-23T23:12:08;16.60;25.20
32895;DHT22;19251;49.484;8.260;2023-03-23T23:22:12;16.70;25.20
32895;DHT22;19251;49.484;8.260;2023-03-23T23:27:20;16.70;25.30
32895;DHT22;19251;49.484;8.260;2023-03-23T23:32:23;16.70;25.20
32895;DHT22;19251;49.484;8.260;2023-03-23T23:37:26;16.70;25.30
32895;DHT22;19251;49.484;8.260;2023-03-23T23:47:30;16.70;25.20
